Terminal Aerodrome Forecast
Issued by NWS Corpus Christi, TX

Home | Current Version | Previous Version | Text Only | Print | Product List | Glossary On
Versions: 1 2 3 4 5 6 7 8 9 10 11 12 13 14 15 16
000
FTUS44 KCRP 220640 AAA
TAFCRP
TAF AMD
KCRP 220640Z 2207/2306 03006KT P6SM SCT007 BKN011 BKN035
      TEMPO 2207/2208 BKN007 BKN011
     FM220800 01017G24KT P6SM VCSH OVC040
      TEMPO 2210/2212 -SHRA BKN020
     FM221300 36020G28KT P6SM SCT018 BKN040
     FM230000 01012KT P6SM SKC=

USA.gov is the U.S. government's official web portal to all federal, state and local government web resources and services.